sensor_id;sensor_type;location;lat;lon;timestamp;P1;durP1;ratioP1;P2;durP2;ratioP2
74793;SDS011;63320;50.768;6.724;2023-01-29T00:01:03;55.38;;;27.52;;
74793;SDS011;63320;50.768;6.724;2023-01-29T00:03:29;56.30;;;25.80;;
74793;SDS011;63320;50.768;6.724;2023-01-29T00:05:55;52.50;;;26.40;;
74793;SDS011;63320;50.768;6.724;2023-01-29T00:08:21;52.13;;;26.15;;
74793;SDS011;63320;50.768;6.724;2023-01-29T00:10:47;53.90;;;26.13;;
74793;SDS011;63320;50.768;6.724;2023-01-29T00:13:12;53.67;;;27.77;;
74793;SDS011;63320;50.768;6.724;2023-01-29T00:15:38;54.47;;;28.00;;
74793;SDS011;63320;50.768;6.724;2023-01-29T00:18:03;53.17;;;26.77;;
74793;SDS011;63320;50.768;6.724;2023-01-29T00:20:29;58.72;;;29.13;;
74793;SDS011;63320;50.768;6.724;2023-01-29T00:22:54;59.67;;;28.30;;
74793;SDS011;63320;50.768;6.724;2023-01-29T00:25:21;56.47;;;28.10;;
74793;SDS011;63320;50.768;6.724;2023-01-29T00:27:46;53.63;;;27.55;;
74793;SDS011;63320;50.768;6.724;2023-01-29T00:30:12;56.75;;;28.40;;
74793;SDS011;63320;50.768;6.724;2023-01-29T00:32:37;55.85;;;26.95;;
74793;SDS011;63320;50.768;6.724;2023-01-29T00:35:03;55.45;;;28.13;;
74793;SDS011;63320;50.768;6.724;2023-01-29T00:37:29;53.95;;;26.52;;
74793;SDS011;63320;50.768;6.724;2023-01-29T00:39:54;53.22;;;26.27;;
74793;SDS011;63320;50.768;6.724;2023-01-29T00:42:21;57.63;;;27.08;;
74793;SDS011;63320;50.768;6.724;2023-01-29T00:44:47;55.78;;;27.85;;
74793;SDS011;63320;50.768;6.724;2023-01-29T00:47:12;54.08;;;26.92;;
74793;SDS011;63320;50.768;6.724;2023-01-29T00:49:37;54.13;;;26.30;;
74793;SDS011;63320;50.768;6.724;2023-01-29T00:52:03;55.22;;;26.77;;
74793;SDS011;63320;50.768;6.724;2023-01-29T00:54:28;52.45;;;26.67;;
74793;SDS011;63320;50.768;6.724;2023-01-29T00:56:53;53.08;;;26.52;;
74793;SDS011;63320;50.768;6.724;2023-01-29T00:59:20;50.33;;;25.65;;
74793;SDS011;63320;50.768;6.724;2023-01-29T01:01:45;54.25;;;25.27;;
74793;SDS011;63320;50.768;6.724;2023-01-29T01:04:14;52.88;;;26.85;;
74793;SDS011;63320;50.768;6.724;2023-01-29T01:06:40;53.00;;;25.05;;
74793;SDS011;63320;50.768;6.724;2023-01-29T01:09:06;51.03;;;25.25;;
74793;SDS011;63320;50.768;6.724;2023-01-29T01:11:32;55.38;;;26.55;;
74793;SDS011;63320;50.768;6.724;2023-01-29T01:13:57;51.67;;;25.73;;
74793;SDS011;63320;50.768;6.724;2023-01-29T01:16:24;48.35;;;24.33;;
74793;SDS011;63320;50.768;6.724;2023-01-29T01:18:49;51.90;;;25.42;;
74793;SDS011;63320;50.768;6.724;2023-01-29T01:21:15;50.33;;;25.52;;
74793;SDS011;63320;50.768;6.724;2023-01-29T01:23:40;56.70;;;27.25;;
74793;SDS011;63320;50.768;6.724;2023-01-29T01:26:08;67.25;;;31.15;;
74793;SDS011;63320;50.768;6.724;2023-01-29T01:28:34;86.93;;;35.67;;
74793;SDS011;63320;50.768;6.724;2023-01-29T01:31:06;84.15;;;35.65;;
74793;SDS011;63320;50.768;6.724;2023-01-29T01:33:33;83.85;;;34.38;;
74793;SDS011;63320;50.768;6.724;2023-01-29T01:36:00;92.60;;;36.00;;
74793;SDS011;63320;50.768;6.724;2023-01-29T01:38:25;83.80;;;35.17;;
74793;SDS011;63320;50.768;6.724;2023-01-29T01:40:50;91.68;;;37.60;;
74793;SDS011;63320;50.768;6.724;2023-01-29T01:43:16;77.75;;;33.50;;
74793;SDS011;63320;50.768;6.724;2023-01-29T01:45:41;63.60;;;28.85;;
74793;SDS011;63320;50.768;6.724;2023-01-29T01:48:08;51.72;;;25.48;;
74793;SDS011;63320;50.768;6.724;2023-01-29T01:50:38;51.33;;;25.10;;
74793;SDS011;63320;50.768;6.724;2023-01-29T01:53:08;51.70;;;24.27;;
74793;SDS011;63320;50.768;6.724;2023-01-29T01:55:35;51.17;;;25.40;;
74793;SDS011;63320;50.768;6.724;2023-01-29T01:58:05;44.92;;;23.13;;
74793;SDS011;63320;50.768;6.724;2023-01-29T02:00:34;45.83;;;23.60;;
74793;SDS011;63320;50.768;6.724;2023-01-29T02:02:59;52.25;;;25.00;;
74793;SDS011;63320;50.768;6.724;2023-01-29T02:05:26;49.08;;;26.70;;
74793;SDS011;63320;50.768;6.724;2023-01-29T02:07:55;64.25;;;29.83;;
74793;SDS011;63320;50.768;6.724;2023-01-29T02:10:21;67.55;;;31.98;;
74793;SDS011;63320;50.768;6.724;2023-01-29T02:12:47;57.97;;;28.63;;
74793;SDS011;63320;50.768;6.724;2023-01-29T02:15:12;48.25;;;23.92;;
74793;SDS011;63320;50.768;6.724;2023-01-29T02:17:38;49.47;;;24.10;;
74793;SDS011;63320;50.768;6.724;2023-01-29T02:20:06;47.13;;;23.50;;
74793;SDS011;63320;50.768;6.724;2023-01-29T02:22:45;49.58;;;24.60;;
74793;SDS011;63320;50.768;6.724;2023-01-29T02:28:31;48.97;;;24.67;;
74793;SDS011;63320;50.768;6.724;2023-01-29T02:31:05;50.97;;;24.13;;
74793;SDS011;63320;50.768;6.724;2023-01-29T02:33:39;48.22;;;25.55;;
74793;SDS011;63320;50.768;6.724;2023-01-29T02:36:14;54.35;;;26.92;;
74793;SDS011;63320;50.768;6.724;2023-01-29T02:38:54;55.22;;;26.63;;
74793;SDS011;63320;50.768;6.724;2023-01-29T02:41:25;55.85;;;26.98;;
74793;SDS011;63320;50.768;6.724;2023-01-29T02:43:57;48.92;;;24.92;;
74793;SDS011;63320;50.768;6.724;2023-01-29T02:46:31;49.90;;;25.17;;
74793;SDS011;63320;50.768;6.724;2023-01-29T02:49:04;55.25;;;25.65;;
74793;SDS011;63320;50.768;6.724;2023-01-29T02:51:35;50.42;;;24.73;;
74793;SDS011;63320;50.768;6.724;2023-01-29T02:54:09;46.47;;;24.15;;
74793;SDS011;63320;50.768;6.724;2023-01-29T02:56:44;48.50;;;23.63;;
74793;SDS011;63320;50.768;6.724;2023-01-29T02:59:17;46.80;;;23.55;;
74793;SDS011;63320;50.768;6.724;2023-01-29T03:01:47;50.03;;;24.48;;
74793;SDS011;63320;50.768;6.724;2023-01-29T03:04:18;50.03;;;24.92;;
74793;SDS011;63320;50.768;6.724;2023-01-29T03:06:47;47.65;;;24.55;;
74793;SDS011;63320;50.768;6.724;2023-01-29T03:09:18;57.88;;;25.30;;
74793;SDS011;63320;50.768;6.724;2023-01-29T03:11:47;53.00;;;25.88;;
74793;SDS011;63320;50.768;6.724;2023-01-29T03:14:19;53.42;;;25.30;;
74793;SDS011;63320;50.768;6.724;2023-01-29T03:16:52;53.67;;;25.02;;
74793;SDS011;63320;50.768;6.724;2023-01-29T03:19:18;53.30;;;25.48;;
74793;SDS011;63320;50.768;6.724;2023-01-29T03:21:49;50.72;;;24.85;;
74793;SDS011;63320;50.768;6.724;2023-01-29T03:24:16;56.95;;;25.70;;
74793;SDS011;63320;50.768;6.724;2023-01-29T03:26:45;52.45;;;24.77;;
74793;SDS011;63320;50.768;6.724;2023-01-29T03:29:10;50.25;;;24.38;;
74793;SDS011;63320;50.768;6.724;2023-01-29T03:31:38;52.80;;;23.23;;
74793;SDS011;63320;50.768;6.724;2023-01-29T03:34:05;50.40;;;22.55;;
74793;SDS011;63320;50.768;6.724;2023-01-29T03:36:33;47.22;;;22.60;;
74793;SDS011;63320;50.768;6.724;2023-01-29T03:39:01;45.60;;;23.10;;
74793;SDS011;63320;50.768;6.724;2023-01-29T03:41:27;46.80;;;22.88;;
74793;SDS011;63320;50.768;6.724;2023-01-29T03:44:00;48.70;;;23.00;;
74793;SDS011;63320;50.768;6.724;2023-01-29T03:46:34;42.28;;;21.67;;
74793;SDS011;63320;50.768;6.724;2023-01-29T03:49:08;46.95;;;22.38;;
74793;SDS011;63320;50.768;6.724;2023-01-29T03:51:40;45.67;;;22.35;;
74793;SDS011;63320;50.768;6.724;2023-01-29T03:54:16;49.35;;;23.58;;
74793;SDS011;63320;50.768;6.724;2023-01-29T03:56:52;45.60;;;22.33;;
74793;SDS011;63320;50.768;6.724;2023-01-29T03:59:26;47.50;;;22.83;;
74793;SDS011;63320;50.768;6.724;2023-01-29T04:02:02;45.15;;;22.13;;
74793;SDS011;63320;50.768;6.724;2023-01-29T04:04:32;46.95;;;22.17;;
74793;SDS011;63320;50.768;6.724;2023-01-29T04:07:00;48.40;;;23.83;;
74793;SDS011;63320;50.768;6.724;2023-01-29T04:09:31;45.85;;;22.40;;
74793;SDS011;63320;50.768;6.724;2023-01-29T04:12:01;44.80;;;22.83;;
74793;SDS011;63320;50.768;6.724;2023-01-29T04:14:29;44.75;;;21.55;;
74793;SDS011;63320;50.768;6.724;2023-01-29T04:16:56;44.53;;;22.13;;
74793;SDS011;63320;50.768;6.724;2023-01-29T04:19:27;45.47;;;22.80;;
74793;SDS011;63320;50.768;6.724;2023-01-29T04:21:56;45.08;;;21.90;;
74793;SDS011;63320;50.768;6.724;2023-01-29T04:24:25;46.65;;;22.90;;
74793;SDS011;63320;50.768;6.724;2023-01-29T04:26:55;42.13;;;21.25;;
74793;SDS011;63320;50.768;6.724;2023-01-29T04:29:33;44.58;;;21.67;;
74793;SDS011;63320;50.768;6.724;2023-01-29T04:32:06;46.00;;;22.15;;
74793;SDS011;63320;50.768;6.724;2023-01-29T04:34:39;43.45;;;21.70;;
74793;SDS011;63320;50.768;6.724;2023-01-29T04:37:16;41.35;;;20.65;;
74793;SDS011;63320;50.768;6.724;2023-01-29T04:39:52;40.25;;;21.10;;
74793;SDS011;63320;50.768;6.724;2023-01-29T04:42:25;46.75;;;21.88;;
74793;SDS011;63320;50.768;6.724;2023-01-29T04:44:57;42.75;;;20.25;;
74793;SDS011;63320;50.768;6.724;2023-01-29T04:47:29;43.53;;;21.63;;
74793;SDS011;63320;50.768;6.724;2023-01-29T04:52:32;38.58;;;19.08;;
74793;SDS011;63320;50.768;6.724;2023-01-29T04:55:06;44.17;;;20.38;;
74793;SDS011;63320;50.768;6.724;2023-01-29T04:57:40;44.15;;;21.23;;
74793;SDS011;63320;50.768;6.724;2023-01-29T05:00:12;44.90;;;21.67;;
74793;SDS011;63320;50.768;6.724;2023-01-29T05:02:41;45.38;;;21.83;;
74793;SDS011;63320;50.768;6.724;2023-01-29T05:05:10;48.17;;;21.75;;
74793;SDS011;63320;50.768;6.724;2023-01-29T05:07:39;41.75;;;20.70;;
74793;SDS011;63320;50.768;6.724;2023-01-29T05:10:07;43.03;;;20.80;;
74793;SDS011;63320;50.768;6.724;2023-01-29T05:12:34;43.85;;;21.17;;
74793;SDS011;63320;50.768;6.724;2023-01-29T05:15:02;43.20;;;20.65;;
74793;SDS011;63320;50.768;6.724;2023-01-29T05:17:32;42.90;;;21.10;;
74793;SDS011;63320;50.768;6.724;2023-01-29T05:19:57;43.65;;;20.40;;
74793;SDS011;63320;50.768;6.724;2023-01-29T05:22:24;40.38;;;20.02;;
74793;SDS011;63320;50.768;6.724;2023-01-29T05:24:50;44.13;;;21.08;;
74793;SDS011;63320;50.768;6.724;2023-01-29T05:27:17;39.45;;;19.45;;
74793;SDS011;63320;50.768;6.724;2023-01-29T05:29:44;40.40;;;20.40;;
74793;SDS011;63320;50.768;6.724;2023-01-29T05:32:10;43.63;;;19.30;;
74793;SDS011;63320;50.768;6.724;2023-01-29T05:34:36;42.03;;;19.85;;
74793;SDS011;63320;50.768;6.724;2023-01-29T05:37:01;42.45;;;20.20;;
74793;SDS011;63320;50.768;6.724;2023-01-29T05:39:28;42.42;;;20.83;;
74793;SDS011;63320;50.768;6.724;2023-01-29T05:41:54;44.42;;;20.85;;
74793;SDS011;63320;50.768;6.724;2023-01-29T05:44:19;42.28;;;20.48;;
74793;SDS011;63320;50.768;6.724;2023-01-29T05:46:44;42.70;;;19.98;;
74793;SDS011;63320;50.768;6.724;2023-01-29T05:49:10;41.20;;;19.75;;
74793;SDS011;63320;50.768;6.724;2023-01-29T05:51:35;43.75;;;20.63;;
74793;SDS011;63320;50.768;6.724;2023-01-29T05:54:01;43.20;;;20.88;;
74793;SDS011;63320;50.768;6.724;2023-01-29T05:56:27;47.50;;;21.85;;
74793;SDS011;63320;50.768;6.724;2023-01-29T05:58:53;41.53;;;19.90;;
74793;SDS011;63320;50.768;6.724;2023-01-29T06:01:19;45.25;;;21.52;;
74793;SDS011;63320;50.768;6.724;2023-01-29T06:03:46;44.55;;;20.45;;
74793;SDS011;63320;50.768;6.724;2023-01-29T06:06:12;44.28;;;20.92;;
74793;SDS011;63320;50.768;6.724;2023-01-29T06:08:37;43.55;;;21.60;;
74793;SDS011;63320;50.768;6.724;2023-01-29T06:11:05;43.88;;;20.73;;
74793;SDS011;63320;50.768;6.724;2023-01-29T06:13:33;44.42;;;20.38;;
74793;SDS011;63320;50.768;6.724;2023-01-29T06:15:59;45.35;;;21.42;;
74793;SDS011;63320;50.768;6.724;2023-01-29T06:18:24;42.85;;;20.58;;
74793;SDS011;63320;50.768;6.724;2023-01-29T06:20:49;45.28;;;21.50;;
74793;SDS011;63320;50.768;6.724;2023-01-29T06:23:15;44.08;;;21.02;;
74793;SDS011;63320;50.768;6.724;2023-01-29T06:25:40;44.47;;;21.05;;
74793;SDS011;63320;50.768;6.724;2023-01-29T06:28:05;49.13;;;22.25;;
74793;SDS011;63320;50.768;6.724;2023-01-29T06:30:32;44.80;;;20.02;;
74793;SDS011;63320;50.768;6.724;2023-01-29T06:32:58;41.63;;;19.98;;
74793;SDS011;63320;50.768;6.724;2023-01-29T06:35:23;44.42;;;20.60;;
74793;SDS011;63320;50.768;6.724;2023-01-29T06:37:49;50.40;;;22.55;;
74793;SDS011;63320;50.768;6.724;2023-01-29T06:40:14;49.83;;;22.58;;
74793;SDS011;63320;50.768;6.724;2023-01-29T06:42:40;45.33;;;20.75;;
74793;SDS011;63320;50.768;6.724;2023-01-29T06:45:05;43.75;;;21.00;;
74793;SDS011;63320;50.768;6.724;2023-01-29T06:47:33;58.85;;;25.80;;
74793;SDS011;63320;50.768;6.724;2023-01-29T06:49:58;77.28;;;32.35;;
74793;SDS011;63320;50.768;6.724;2023-01-29T06:52:24;76.15;;;30.23;;
74793;SDS011;63320;50.768;6.724;2023-01-29T06:54:49;92.50;;;36.63;;
74793;SDS011;63320;50.768;6.724;2023-01-29T06:57:14;72.25;;;30.88;;
74793;SDS011;63320;50.768;6.724;2023-01-29T06:59:40;50.40;;;23.05;;
74793;SDS011;63320;50.768;6.724;2023-01-29T07:02:05;48.30;;;20.80;;
74793;SDS011;63320;50.768;6.724;2023-01-29T07:04:32;45.78;;;20.83;;
74793;SDS011;63320;50.768;6.724;2023-01-29T07:06:57;46.95;;;21.08;;
74793;SDS011;63320;50.768;6.724;2023-01-29T07:09:23;46.63;;;20.25;;
74793;SDS011;63320;50.768;6.724;2023-01-29T07:11:48;50.28;;;23.85;;
74793;SDS011;63320;50.768;6.724;2023-01-29T07:14:14;55.20;;;25.33;;
74793;SDS011;63320;50.768;6.724;2023-01-29T07:16:39;52.85;;;23.20;;
74793;SDS011;63320;50.768;6.724;2023-01-29T07:19:04;51.25;;;24.25;;
74793;SDS011;63320;50.768;6.724;2023-01-29T07:21:31;48.03;;;22.33;;
74793;SDS011;63320;50.768;6.724;2023-01-29T07:23:56;46.22;;;22.05;;
74793;SDS011;63320;50.768;6.724;2023-01-29T07:26:22;50.65;;;22.35;;
74793;SDS011;63320;50.768;6.724;2023-01-29T07:28:47;53.03;;;24.00;;
74793;SDS011;63320;50.768;6.724;2023-01-29T07:31:13;53.47;;;22.33;;
74793;SDS011;63320;50.768;6.724;2023-01-29T07:33:38;49.15;;;22.88;;
74793;SDS011;63320;50.768;6.724;2023-01-29T07:36:06;47.28;;;21.65;;
74793;SDS011;63320;50.768;6.724;2023-01-29T07:38:33;46.28;;;21.77;;
74793;SDS011;63320;50.768;6.724;2023-01-29T07:40:58;47.80;;;21.45;;
74793;SDS011;63320;50.768;6.724;2023-01-29T07:43:24;48.03;;;21.90;;
74793;SDS011;63320;50.768;6.724;2023-01-29T07:45:49;48.03;;;22.75;;
74793;SDS011;63320;50.768;6.724;2023-01-29T07:48:15;51.72;;;23.60;;
74793;SDS011;63320;50.768;6.724;2023-01-29T07:50:40;46.22;;;20.63;;
74793;SDS011;63320;50.768;6.724;2023-01-29T07:53:05;49.17;;;22.45;;
74793;SDS011;63320;50.768;6.724;2023-01-29T07:55:32;50.25;;;22.95;;
74793;SDS011;63320;50.768;6.724;2023-01-29T07:57:59;54.53;;;23.17;;
74793;SDS011;63320;50.768;6.724;2023-01-29T08:00:25;47.67;;;22.00;;
74793;SDS011;63320;50.768;6.724;2023-01-29T08:02:50;47.65;;;22.75;;
74793;SDS011;63320;50.768;6.724;2023-01-29T08:05:16;51.25;;;21.90;;
74793;SDS011;63320;50.768;6.724;2023-01-29T08:07:41;51.05;;;22.60;;
74793;SDS011;63320;50.768;6.724;2023-01-29T08:10:07;48.35;;;22.30;;
74793;SDS011;63320;50.768;6.724;2023-01-29T08:12:35;50.97;;;24.20;;
74793;SDS011;63320;50.768;6.724;2023-01-29T08:15:00;51.63;;;23.00;;
74793;SDS011;63320;50.768;6.724;2023-01-29T08:17:25;52.47;;;23.17;;
74793;SDS011;63320;50.768;6.724;2023-01-29T08:19:51;54.42;;;24.42;;
74793;SDS011;63320;50.768;6.724;2023-01-29T08:22:16;48.13;;;21.88;;
74793;SDS011;63320;50.768;6.724;2023-01-29T08:24:41;49.00;;;22.80;;
74793;SDS011;63320;50.768;6.724;2023-01-29T08:27:07;53.55;;;25.00;;
74793;SDS011;63320;50.768;6.724;2023-01-29T08:29:34;53.03;;;24.25;;
74793;SDS011;63320;50.768;6.724;2023-01-29T08:32:00;53.20;;;24.63;;
74793;SDS011;63320;50.768;6.724;2023-01-29T08:34:25;53.22;;;24.05;;
74793;SDS011;63320;50.768;6.724;2023-01-29T08:36:50;50.05;;;23.10;;
74793;SDS011;63320;50.768;6.724;2023-01-29T08:39:16;51.22;;;22.77;;
74793;SDS011;63320;50.768;6.724;2023-01-29T08:41:41;57.20;;;23.33;;
74793;SDS011;63320;50.768;6.724;2023-01-29T08:44:07;50.28;;;21.58;;
74793;SDS011;63320;50.768;6.724;2023-01-29T08:46:33;50.72;;;21.70;;
74793;SDS011;63320;50.768;6.724;2023-01-29T08:48:59;51.92;;;21.50;;
74793;SDS011;63320;50.768;6.724;2023-01-29T08:51:24;55.38;;;22.85;;
74793;SDS011;63320;50.768;6.724;2023-01-29T08:53:50;51.33;;;22.95;;
74793;SDS011;63320;50.768;6.724;2023-01-29T08:56:15;54.97;;;24.45;;
74793;SDS011;63320;50.768;6.724;2023-01-29T08:58:41;58.42;;;25.48;;
74793;SDS011;63320;50.768;6.724;2023-01-29T09:01:07;53.13;;;23.55;;
74793;SDS011;63320;50.768;6.724;2023-01-29T09:03:34;53.55;;;23.15;;
74793;SDS011;63320;50.768;6.724;2023-01-29T09:06:00;48.60;;;21.85;;
74793;SDS011;63320;50.768;6.724;2023-01-29T09:08:26;53.97;;;23.40;;
74793;SDS011;63320;50.768;6.724;2023-01-29T09:10:51;46.88;;;20.67;;
74793;SDS011;63320;50.768;6.724;2023-01-29T09:13:16;50.55;;;21.83;;
74793;SDS011;63320;50.768;6.724;2023-01-29T09:15:42;52.22;;;23.58;;
74793;SDS011;63320;50.768;6.724;2023-01-29T09:18:07;52.25;;;23.02;;
74793;SDS011;63320;50.768;6.724;2023-01-29T09:20:34;52.13;;;23.75;;
74793;SDS011;63320;50.768;6.724;2023-01-29T09:23:02;46.97;;;21.42;;
74793;SDS011;63320;50.768;6.724;2023-01-29T09:25:28;50.30;;;21.85;;
74793;SDS011;63320;50.768;6.724;2023-01-29T09:27:53;52.47;;;23.15;;
74793;SDS011;63320;50.768;6.724;2023-01-29T09:30:19;51.50;;;22.27;;
74793;SDS011;63320;50.768;6.724;2023-01-29T09:32:44;48.75;;;21.58;;
74793;SDS011;63320;50.768;6.724;2023-01-29T09:35:09;47.08;;;21.13;;
74793;SDS011;63320;50.768;6.724;2023-01-29T09:37:36;48.90;;;22.23;;
74793;SDS011;63320;50.768;6.724;2023-01-29T09:40:01;49.85;;;22.10;;
74793;SDS011;63320;50.768;6.724;2023-01-29T09:42:28;48.50;;;21.48;;
74793;SDS011;63320;50.768;6.724;2023-01-29T09:45:03;50.75;;;21.27;;
74793;SDS011;63320;50.768;6.724;2023-01-29T09:47:34;47.72;;;22.83;;
74793;SDS011;63320;50.768;6.724;2023-01-29T09:50:00;49.40;;;23.35;;
74793;SDS011;63320;50.768;6.724;2023-01-29T09:52:30;49.75;;;22.65;;
74793;SDS011;63320;50.768;6.724;2023-01-29T09:55:01;49.58;;;21.90;;
74793;SDS011;63320;50.768;6.724;2023-01-29T09:57:33;54.15;;;23.25;;
74793;SDS011;63320;50.768;6.724;2023-01-29T10:00:05;48.58;;;22.17;;
74793;SDS011;63320;50.768;6.724;2023-01-29T10:02:51;49.45;;;22.05;;
74793;SDS011;63320;50.768;6.724;2023-01-29T10:05:36;47.90;;;21.05;;
74793;SDS011;63320;50.768;6.724;2023-01-29T10:08:25;47.30;;;20.70;;
74793;SDS011;63320;50.768;6.724;2023-01-29T10:11:08;56.20;;;24.50;;
74793;SDS011;63320;50.768;6.724;2023-01-29T10:13:43;55.75;;;24.90;;
74793;SDS011;63320;50.768;6.724;2023-01-29T10:16:17;48.00;;;21.77;;
74793;SDS011;63320;50.768;6.724;2023-01-29T10:19:02;47.17;;;21.13;;
74793;SDS011;63320;50.768;6.724;2023-01-29T10:21:51;47.10;;;22.10;;
74793;SDS011;63320;50.768;6.724;2023-01-29T10:24:31;48.40;;;22.20;;
74793;SDS011;63320;50.768;6.724;2023-01-29T10:27:02;50.90;;;22.40;;
74793;SDS011;63320;50.768;6.724;2023-01-29T10:29:37;45.85;;;20.83;;
74793;SDS011;63320;50.768;6.724;2023-01-29T10:32:06;49.00;;;22.00;;
74793;SDS011;63320;50.768;6.724;2023-01-29T10:34:37;47.35;;;21.15;;
74793;SDS011;63320;50.768;6.724;2023-01-29T10:37:10;45.45;;;20.38;;
74793;SDS011;63320;50.768;6.724;2023-01-29T10:39:41;53.10;;;23.83;;
74793;SDS011;63320;50.768;6.724;2023-01-29T10:42:14;49.15;;;21.63;;
74793;SDS011;63320;50.768;6.724;2023-01-29T10:44:50;49.35;;;21.65;;
74793;SDS011;63320;50.768;6.724;2023-01-29T10:47:37;45.38;;;21.63;;
74793;SDS011;63320;50.768;6.724;2023-01-29T10:50:17;47.65;;;20.77;;
74793;SDS011;63320;50.768;6.724;2023-01-29T10:52:57;46.22;;;21.08;;
74793;SDS011;63320;50.768;6.724;2023-01-29T10:55:36;46.88;;;21.40;;
74793;SDS011;63320;50.768;6.724;2023-01-29T10:58:10;48.80;;;21.80;;
74793;SDS011;63320;50.768;6.724;2023-01-29T11:00:48;45.40;;;20.48;;
74793;SDS011;63320;50.768;6.724;2023-01-29T11:03:17;44.47;;;19.75;;
74793;SDS011;63320;50.768;6.724;2023-01-29T11:05:48;45.63;;;20.52;;
74793;SDS011;63320;50.768;6.724;2023-01-29T11:08:20;42.90;;;18.88;;
74793;SDS011;63320;50.768;6.724;2023-01-29T11:10:50;45.13;;;20.15;;
74793;SDS011;63320;50.768;6.724;2023-01-29T11:13:26;44.55;;;20.40;;
74793;SDS011;63320;50.768;6.724;2023-01-29T11:15:56;42.72;;;19.95;;
74793;SDS011;63320;50.768;6.724;2023-01-29T11:18:21;42.95;;;19.88;;
74793;SDS011;63320;50.768;6.724;2023-01-29T11:20:46;46.53;;;20.58;;
74793;SDS011;63320;50.768;6.724;2023-01-29T11:23:25;42.35;;;19.85;;
74793;SDS011;63320;50.768;6.724;2023-01-29T11:25:51;44.08;;;20.67;;
74793;SDS011;63320;50.768;6.724;2023-01-29T11:28:24;45.63;;;20.90;;
74793;SDS011;63320;50.768;6.724;2023-01-29T11:31:01;41.78;;;19.23;;
74793;SDS011;63320;50.768;6.724;2023-01-29T11:33:26;46.35;;;21.42;;
74793;SDS011;63320;50.768;6.724;2023-01-29T11:35:53;44.50;;;20.15;;
74793;SDS011;63320;50.768;6.724;2023-01-29T11:38:20;43.45;;;19.13;;
74793;SDS011;63320;50.768;6.724;2023-01-29T11:40:47;47.13;;;20.08;;
74793;SDS011;63320;50.768;6.724;2023-01-29T11:43:19;47.35;;;21.17;;
74793;SDS011;63320;50.768;6.724;2023-01-29T11:45:49;47.03;;;21.85;;
74793;SDS011;63320;50.768;6.724;2023-01-29T11:48:17;43.38;;;19.45;;
74793;SDS011;63320;50.768;6.724;2023-01-29T11:50:50;42.05;;;19.40;;
74793;SDS011;63320;50.768;6.724;2023-01-29T11:53:19;43.83;;;20.63;;
74793;SDS011;63320;50.768;6.724;2023-01-29T11:55:55;40.83;;;19.10;;
74793;SDS011;63320;50.768;6.724;2023-01-29T11:58:23;43.22;;;20.38;;
74793;SDS011;63320;50.768;6.724;2023-01-29T12:00:52;39.75;;;17.98;;
74793;SDS011;63320;50.768;6.724;2023-01-29T12:03:21;40.85;;;17.40;;
74793;SDS011;63320;50.768;6.724;2023-01-29T12:05:54;41.72;;;18.38;;
74793;SDS011;63320;50.768;6.724;2023-01-29T12:08:22;37.17;;;17.67;;
74793;SDS011;63320;50.768;6.724;2023-01-29T12:10:49;37.70;;;15.88;;
74793;SDS011;63320;50.768;6.724;2023-01-29T12:13:27;39.00;;;16.88;;
74793;SDS011;63320;50.768;6.724;2023-01-29T12:16:07;36.08;;;15.88;;
74793;SDS011;63320;50.768;6.724;2023-01-29T12:18:40;37.33;;;17.92;;
74793;SDS011;63320;50.768;6.724;2023-01-29T12:21:10;34.60;;;15.77;;
74793;SDS011;63320;50.768;6.724;2023-01-29T12:23:43;33.95;;;15.05;;
74793;SDS011;63320;50.768;6.724;2023-01-29T12:26:14;35.10;;;16.23;;
74793;SDS011;63320;50.768;6.724;2023-01-29T12:28:46;33.08;;;15.32;;
74793;SDS011;63320;50.768;6.724;2023-01-29T12:31:31;33.42;;;14.63;;
74793;SDS011;63320;50.768;6.724;2023-01-29T12:34:09;33.45;;;15.63;;
74793;SDS011;63320;50.768;6.724;2023-01-29T12:36:40;32.88;;;14.60;;
74793;SDS011;63320;50.768;6.724;2023-01-29T12:39:11;26.92;;;12.23;;
74793;SDS011;63320;50.768;6.724;2023-01-29T12:41:41;23.13;;;10.85;;
74793;SDS011;63320;50.768;6.724;2023-01-29T12:44:12;25.23;;;12.10;;
74793;SDS011;63320;50.768;6.724;2023-01-29T12:46:44;32.92;;;14.65;;
74793;SDS011;63320;50.768;6.724;2023-01-29T12:49:14;31.70;;;15.35;;
74793;SDS011;63320;50.768;6.724;2023-01-29T12:51:45;22.08;;;9.82;;
74793;SDS011;63320;50.768;6.724;2023-01-29T12:54:16;23.20;;;9.60;;
74793;SDS011;63320;50.768;6.724;2023-01-29T12:56:46;20.75;;;8.95;;
74793;SDS011;63320;50.768;6.724;2023-01-29T12:59:16;8.95;;;4.20;;
74793;SDS011;63320;50.768;6.724;2023-01-29T13:01:51;9.70;;;3.53;;
74793;SDS011;63320;50.768;6.724;2023-01-29T13:04:21;7.82;;;3.15;;
74793;SDS011;63320;50.768;6.724;2023-01-29T13:07:05;9.40;;;2.90;;
74793;SDS011;63320;50.768;6.724;2023-01-29T13:09:36;9.10;;;2.97;;
74793;SDS011;63320;50.768;6.724;2023-01-29T13:12:10;6.53;;;2.95;;
74793;SDS011;63320;50.768;6.724;2023-01-29T13:14:39;9.75;;;3.22;;
74793;SDS011;63320;50.768;6.724;2023-01-29T13:17:09;7.68;;;3.30;;
74793;SDS011;63320;50.768;6.724;2023-01-29T13:19:41;7.80;;;3.05;;
74793;SDS011;63320;50.768;6.724;2023-01-29T13:22:12;8.70;;;3.63;;
74793;SDS011;63320;50.768;6.724;2023-01-29T13:24:43;9.40;;;3.50;;
74793;SDS011;63320;50.768;6.724;2023-01-29T13:27:15;13.55;;;4.80;;
74793;SDS011;63320;50.768;6.724;2023-01-29T13:29:45;9.35;;;3.58;;
74793;SDS011;63320;50.768;6.724;2023-01-29T13:32:17;9.65;;;3.47;;
74793;SDS011;63320;50.768;6.724;2023-01-29T13:34:45;9.38;;;3.47;;
74793;SDS011;63320;50.768;6.724;2023-01-29T13:37:16;9.55;;;3.20;;
74793;SDS011;63320;50.768;6.724;2023-01-29T13:39:45;8.35;;;3.45;;
74793;SDS011;63320;50.768;6.724;2023-01-29T13:42:14;8.25;;;3.22;;
74793;SDS011;63320;50.768;6.724;2023-01-29T13:44:44;9.68;;;3.53;;
74793;SDS011;63320;50.768;6.724;2023-01-29T13:47:21;9.23;;;3.10;;
74793;SDS011;63320;50.768;6.724;2023-01-29T13:49:52;9.40;;;3.83;;
74793;SDS011;63320;50.768;6.724;2023-01-29T13:52:34;8.73;;;3.95;;
74793;SDS011;63320;50.768;6.724;2023-01-29T13:55:03;9.50;;;3.78;;
74793;SDS011;63320;50.768;6.724;2023-01-29T13:57:35;11.70;;;4.20;;
74793;SDS011;63320;50.768;6.724;2023-01-29T14:12:39;8.20;;;3.30;;
74793;SDS011;63320;50.768;6.724;2023-01-29T14:15:15;10.05;;;4.35;;
74793;SDS011;63320;50.768;6.724;2023-01-29T14:17:55;7.72;;;3.45;;
74793;SDS011;63320;50.768;6.724;2023-01-29T14:20:26;10.25;;;3.95;;
74793;SDS011;63320;50.768;6.724;2023-01-29T14:22:56;11.70;;;4.47;;
74793;SDS011;63320;50.768;6.724;2023-01-29T14:25:26;10.63;;;4.20;;
74793;SDS011;63320;50.768;6.724;2023-01-29T14:27:54;8.27;;;3.45;;
74793;SDS011;63320;50.768;6.724;2023-01-29T14:30:20;9.15;;;3.33;;
74793;SDS011;63320;50.768;6.724;2023-01-29T14:32:47;7.93;;;3.67;;
74793;SDS011;63320;50.768;6.724;2023-01-29T14:35:16;9.38;;;3.65;;
74793;SDS011;63320;50.768;6.724;2023-01-29T14:37:46;9.57;;;3.03;;
74793;SDS011;63320;50.768;6.724;2023-01-29T14:40:17;7.50;;;3.45;;
74793;SDS011;63320;50.768;6.724;2023-01-29T14:42:50;6.93;;;2.67;;
74793;SDS011;63320;50.768;6.724;2023-01-29T14:45:23;6.65;;;2.78;;
74793;SDS011;63320;50.768;6.724;2023-01-29T14:47:54;6.40;;;2.70;;
74793;SDS011;63320;50.768;6.724;2023-01-29T14:50:38;8.07;;;3.42;;
74793;SDS011;63320;50.768;6.724;2023-01-29T14:53:21;12.27;;;4.53;;